sensor_id;sensor_type;location;lat;lon;timestamp;P1;durP1;ratioP1;P2;durP2;ratioP2
70388;SDS011;58659;49.050;8.530;2022-12-18T00:02:19;30.80;;;9.33;;
70388;SDS011;58659;49.050;8.530;2022-12-18T00:04:44;25.37;;;9.33;;
70388;SDS011;58659;49.050;8.530;2022-12-18T00:07:09;27.40;;;9.60;;
70388;SDS011;58659;49.050;8.530;2022-12-18T00:09:35;25.70;;;10.20;;
70388;SDS011;58659;49.050;8.530;2022-12-18T00:12:00;30.87;;;9.23;;
70388;SDS011;58659;49.050;8.530;2022-12-18T00:14:26;29.00;;;9.77;;
70388;SDS011;58659;49.050;8.530;2022-12-18T00:16:51;32.43;;;10.67;;
70388;SDS011;58659;49.050;8.530;2022-12-18T00:19:16;27.10;;;9.27;;
70388;SDS011;58659;49.050;8.530;2022-12-18T00:21:42;30.07;;;9.43;;
70388;SDS011;58659;49.050;8.530;2022-12-18T00:24:08;30.73;;;10.73;;
70388;SDS011;58659;49.050;8.530;2022-12-18T00:26:35;30.93;;;10.00;;
70388;SDS011;58659;49.050;8.530;2022-12-18T00:29:03;30.00;;;10.27;;
70388;SDS011;58659;49.050;8.530;2022-12-18T00:31:30;22.70;;;8.63;;
70388;SDS011;58659;49.050;8.530;2022-12-18T00:33:56;26.83;;;9.53;;
70388;SDS011;58659;49.050;8.530;2022-12-18T00:36:26;28.83;;;9.73;;
70388;SDS011;58659;49.050;8.530;2022-12-18T00:38:54;24.33;;;10.07;;
70388;SDS011;58659;49.050;8.530;2022-12-18T00:41:20;28.33;;;9.77;;
70388;SDS011;58659;49.050;8.530;2022-12-18T00:44:05;27.37;;;10.00;;
70388;SDS011;58659;49.050;8.530;2022-12-18T00:46:32;25.47;;;9.80;;
70388;SDS011;58659;49.050;8.530;2022-12-18T00:48:58;32.40;;;9.93;;
70388;SDS011;58659;49.050;8.530;2022-12-18T00:51:23;33.80;;;10.47;;
70388;SDS011;58659;49.050;8.530;2022-12-18T00:53:49;20.70;;;8.83;;
70388;SDS011;58659;49.050;8.530;2022-12-18T00:56:15;27.60;;;10.37;;
70388;SDS011;58659;49.050;8.530;2022-12-18T00:58:40;24.60;;;8.77;;
70388;SDS011;58659;49.050;8.530;2022-12-18T01:01:05;28.13;;;9.63;;
70388;SDS011;58659;49.050;8.530;2022-12-18T01:03:31;29.00;;;10.00;;
70388;SDS011;58659;49.050;8.530;2022-12-18T01:05:56;29.70;;;10.67;;
70388;SDS011;58659;49.050;8.530;2022-12-18T01:08:22;35.47;;;10.13;;
70388;SDS011;58659;49.050;8.530;2022-12-18T01:10:47;28.93;;;8.53;;
70388;SDS011;58659;49.050;8.530;2022-12-18T01:13:13;28.30;;;10.17;;
70388;SDS011;58659;49.050;8.530;2022-12-18T01:15:38;26.53;;;9.00;;
70388;SDS011;58659;49.050;8.530;2022-12-18T01:18:03;28.93;;;9.13;;
70388;SDS011;58659;49.050;8.530;2022-12-18T01:20:29;29.57;;;10.00;;
70388;SDS011;58659;49.050;8.530;2022-12-18T01:22:54;29.37;;;11.33;;
70388;SDS011;58659;49.050;8.530;2022-12-18T01:25:19;25.93;;;10.37;;
70388;SDS011;58659;49.050;8.530;2022-12-18T01:27:44;28.17;;;10.17;;
70388;SDS011;58659;49.050;8.530;2022-12-18T01:30:10;28.23;;;9.40;;
70388;SDS011;58659;49.050;8.530;2022-12-18T01:32:35;25.37;;;9.17;;
70388;SDS011;58659;49.050;8.530;2022-12-18T01:35:01;35.73;;;10.03;;
70388;SDS011;58659;49.050;8.530;2022-12-18T01:37:26;23.63;;;9.23;;
70388;SDS011;58659;49.050;8.530;2022-12-18T01:39:52;23.77;;;8.93;;
70388;SDS011;58659;49.050;8.530;2022-12-18T01:42:19;31.17;;;8.97;;
70388;SDS011;58659;49.050;8.530;2022-12-18T01:53:02;37.27;;;10.20;;
70388;SDS011;58659;49.050;8.530;2022-12-18T01:55:31;34.67;;;11.37;;
70388;SDS011;58659;49.050;8.530;2022-12-18T01:58:02;29.23;;;10.20;;
70388;SDS011;58659;49.050;8.530;2022-12-18T02:00:28;26.97;;;10.30;;
70388;SDS011;58659;49.050;8.530;2022-12-18T02:02:54;32.17;;;9.40;;
70388;SDS011;58659;49.050;8.530;2022-12-18T02:05:23;34.77;;;10.07;;
70388;SDS011;58659;49.050;8.530;2022-12-18T02:19:11;26.03;;;9.10;;
70388;SDS011;58659;49.050;8.530;2022-12-18T02:22:12;26.90;;;10.50;;
70388;SDS011;58659;49.050;8.530;2022-12-18T02:27:36;31.30;;;9.67;;
70388;SDS011;58659;49.050;8.530;2022-12-18T02:30:03;27.73;;;8.83;;
70388;SDS011;58659;49.050;8.530;2022-12-18T02:32:31;24.93;;;9.50;;
70388;SDS011;58659;49.050;8.530;2022-12-18T02:35:01;28.60;;;9.67;;
70388;SDS011;58659;49.050;8.530;2022-12-18T02:37:28;27.20;;;9.73;;
70388;SDS011;58659;49.050;8.530;2022-12-18T02:39:55;26.40;;;8.40;;
70388;SDS011;58659;49.050;8.530;2022-12-18T02:42:23;27.60;;;9.53;;
70388;SDS011;58659;49.050;8.530;2022-12-18T02:44:49;26.70;;;9.50;;
70388;SDS011;58659;49.050;8.530;2022-12-18T02:47:20;30.17;;;10.33;;
70388;SDS011;58659;49.050;8.530;2022-12-18T02:55:04;28.13;;;9.33;;
70388;SDS011;58659;49.050;8.530;2022-12-18T03:00:22;22.27;;;9.53;;
70388;SDS011;58659;49.050;8.530;2022-12-18T03:05:28;26.13;;;9.83;;
70388;SDS011;58659;49.050;8.530;2022-12-18T03:07:56;22.67;;;8.47;;
70388;SDS011;58659;49.050;8.530;2022-12-18T03:10:31;25.90;;;9.10;;
70388;SDS011;58659;49.050;8.530;2022-12-18T03:13:01;28.93;;;9.70;;
70388;SDS011;58659;49.050;8.530;2022-12-18T03:15:30;24.00;;;9.50;;
70388;SDS011;58659;49.050;8.530;2022-12-18T03:18:02;23.97;;;9.33;;
70388;SDS011;58659;49.050;8.530;2022-12-18T03:20:35;25.40;;;8.83;;
70388;SDS011;58659;49.050;8.530;2022-12-18T03:23:07;25.27;;;7.97;;
70388;SDS011;58659;49.050;8.530;2022-12-18T03:25:37;29.33;;;10.63;;
70388;SDS011;58659;49.050;8.530;2022-12-18T03:28:07;29.23;;;8.97;;
70388;SDS011;58659;49.050;8.530;2022-12-18T03:30:37;28.87;;;10.50;;
70388;SDS011;58659;49.050;8.530;2022-12-18T03:33:06;27.63;;;10.07;;
70388;SDS011;58659;49.050;8.530;2022-12-18T03:35:37;33.03;;;9.60;;
70388;SDS011;58659;49.050;8.530;2022-12-18T03:38:06;25.13;;;8.63;;
70388;SDS011;58659;49.050;8.530;2022-12-18T03:40:41;32.50;;;10.20;;
70388;SDS011;58659;49.050;8.530;2022-12-18T03:43:16;24.47;;;8.83;;
70388;SDS011;58659;49.050;8.530;2022-12-18T03:46:08;26.67;;;9.13;;
70388;SDS011;58659;49.050;8.530;2022-12-18T03:48:43;23.07;;;8.43;;
70388;SDS011;58659;49.050;8.530;2022-12-18T03:51:17;28.00;;;10.13;;
70388;SDS011;58659;49.050;8.530;2022-12-18T03:54:00;24.33;;;8.43;;
70388;SDS011;58659;49.050;8.530;2022-12-18T03:56:29;26.37;;;7.87;;
70388;SDS011;58659;49.050;8.530;2022-12-18T03:58:58;24.47;;;8.70;;
70388;SDS011;58659;49.050;8.530;2022-12-18T04:01:26;26.90;;;9.00;;
70388;SDS011;58659;49.050;8.530;2022-12-18T04:03:58;22.20;;;7.83;;
70388;SDS011;58659;49.050;8.530;2022-12-18T04:06:26;18.73;;;6.23;;
70388;SDS011;58659;49.050;8.530;2022-12-18T04:08:52;23.87;;;8.03;;
70388;SDS011;58659;49.050;8.530;2022-12-18T04:11:17;25.27;;;8.37;;
70388;SDS011;58659;49.050;8.530;2022-12-18T04:13:43;19.73;;;7.77;;
70388;SDS011;58659;49.050;8.530;2022-12-18T04:16:08;21.73;;;7.43;;
70388;SDS011;58659;49.050;8.530;2022-12-18T04:18:34;20.73;;;7.37;;
70388;SDS011;58659;49.050;8.530;2022-12-18T04:21:00;19.90;;;6.70;;
70388;SDS011;58659;49.050;8.530;2022-12-18T04:23:26;18.40;;;6.17;;
70388;SDS011;58659;49.050;8.530;2022-12-18T04:25:51;23.00;;;7.13;;
70388;SDS011;58659;49.050;8.530;2022-12-18T04:28:16;17.57;;;7.40;;
70388;SDS011;58659;49.050;8.530;2022-12-18T04:30:42;21.17;;;7.27;;
70388;SDS011;58659;49.050;8.530;2022-12-18T04:33:10;15.97;;;5.97;;
70388;SDS011;58659;49.050;8.530;2022-12-18T04:35:36;19.23;;;7.10;;
70388;SDS011;58659;49.050;8.530;2022-12-18T04:38:02;16.67;;;5.23;;
70388;SDS011;58659;49.050;8.530;2022-12-18T04:40:27;20.83;;;6.23;;
70388;SDS011;58659;49.050;8.530;2022-12-18T04:42:53;19.63;;;5.83;;
70388;SDS011;58659;49.050;8.530;2022-12-18T04:45:18;20.37;;;7.93;;
70388;SDS011;58659;49.050;8.530;2022-12-18T04:47:43;15.67;;;6.53;;
70388;SDS011;58659;49.050;8.530;2022-12-18T04:50:08;21.07;;;5.70;;
70388;SDS011;58659;49.050;8.530;2022-12-18T04:52:34;27.00;;;7.13;;
70388;SDS011;58659;49.050;8.530;2022-12-18T04:54:59;14.10;;;6.17;;
70388;SDS011;58659;49.050;8.530;2022-12-18T04:57:24;15.60;;;6.83;;
70388;SDS011;58659;49.050;8.530;2022-12-18T04:59:51;20.83;;;8.17;;
70388;SDS011;58659;49.050;8.530;2022-12-18T05:02:16;23.27;;;8.00;;
70388;SDS011;58659;49.050;8.530;2022-12-18T05:04:41;21.67;;;7.50;;
70388;SDS011;58659;49.050;8.530;2022-12-18T05:07:06;15.87;;;6.50;;
70388;SDS011;58659;49.050;8.530;2022-12-18T05:09:32;19.23;;;7.77;;
70388;SDS011;58659;49.050;8.530;2022-12-18T05:11:57;24.83;;;6.43;;
70388;SDS011;58659;49.050;8.530;2022-12-18T05:14:22;23.40;;;6.83;;
70388;SDS011;58659;49.050;8.530;2022-12-18T05:16:48;20.27;;;6.27;;
70388;SDS011;58659;49.050;8.530;2022-12-18T05:19:13;25.10;;;7.13;;
70388;SDS011;58659;49.050;8.530;2022-12-18T05:21:38;19.20;;;5.93;;
70388;SDS011;58659;49.050;8.530;2022-12-18T05:24:03;13.53;;;5.83;;
70388;SDS011;58659;49.050;8.530;2022-12-18T05:26:29;25.70;;;6.43;;
70388;SDS011;58659;49.050;8.530;2022-12-18T05:28:57;11.83;;;4.93;;
70388;SDS011;58659;49.050;8.530;2022-12-18T05:31:23;11.00;;;4.33;;
70388;SDS011;58659;49.050;8.530;2022-12-18T05:33:51;15.53;;;7.30;;
70388;SDS011;58659;49.050;8.530;2022-12-18T05:36:16;18.93;;;6.07;;
70388;SDS011;58659;49.050;8.530;2022-12-18T05:38:41;19.10;;;6.13;;
70388;SDS011;58659;49.050;8.530;2022-12-18T05:41:07;22.03;;;7.50;;
70388;SDS011;58659;49.050;8.530;2022-12-18T05:43:36;19.40;;;5.57;;
70388;SDS011;58659;49.050;8.530;2022-12-18T05:46:21;15.07;;;5.47;;
70388;SDS011;58659;49.050;8.530;2022-12-18T05:48:46;12.93;;;5.97;;
70388;SDS011;58659;49.050;8.530;2022-12-18T05:51:13;17.27;;;6.67;;
70388;SDS011;58659;49.050;8.530;2022-12-18T05:53:40;12.23;;;5.93;;
70388;SDS011;58659;49.050;8.530;2022-12-18T05:56:07;21.77;;;5.90;;
70388;SDS011;58659;49.050;8.530;2022-12-18T05:58:36;13.07;;;4.63;;
70388;SDS011;58659;49.050;8.530;2022-12-18T06:03:37;19.07;;;6.33;;
70388;SDS011;58659;49.050;8.530;2022-12-18T06:06:02;16.93;;;4.30;;
70388;SDS011;58659;49.050;8.530;2022-12-18T06:08:28;16.03;;;6.73;;
70388;SDS011;58659;49.050;8.530;2022-12-18T06:10:53;21.17;;;8.53;;
70388;SDS011;58659;49.050;8.530;2022-12-18T06:13:19;26.13;;;8.03;;
70388;SDS011;58659;49.050;8.530;2022-12-18T06:15:45;22.20;;;6.60;;
70388;SDS011;58659;49.050;8.530;2022-12-18T06:18:10;16.00;;;6.27;;
70388;SDS011;58659;49.050;8.530;2022-12-18T06:20:36;20.83;;;7.13;;
70388;SDS011;58659;49.050;8.530;2022-12-18T06:23:02;24.90;;;7.63;;
70388;SDS011;58659;49.050;8.530;2022-12-18T06:25:27;19.70;;;6.80;;
70388;SDS011;58659;49.050;8.530;2022-12-18T06:27:53;21.27;;;7.23;;
70388;SDS011;58659;49.050;8.530;2022-12-18T06:30:19;29.17;;;8.60;;
70388;SDS011;58659;49.050;8.530;2022-12-18T06:32:44;27.30;;;6.67;;
70388;SDS011;58659;49.050;8.530;2022-12-18T06:35:10;24.67;;;7.73;;
70388;SDS011;58659;49.050;8.530;2022-12-18T06:37:35;40.77;;;9.30;;
70388;SDS011;58659;49.050;8.530;2022-12-18T06:40:00;23.90;;;9.00;;
70388;SDS011;58659;49.050;8.530;2022-12-18T06:42:26;26.07;;;6.20;;
70388;SDS011;58659;49.050;8.530;2022-12-18T06:44:51;21.80;;;7.67;;
70388;SDS011;58659;49.050;8.530;2022-12-18T06:47:17;22.03;;;7.77;;
70388;SDS011;58659;49.050;8.530;2022-12-18T06:49:43;24.67;;;7.93;;
70388;SDS011;58659;49.050;8.530;2022-12-18T06:52:08;29.87;;;8.47;;
70388;SDS011;58659;49.050;8.530;2022-12-18T06:54:33;33.73;;;7.80;;
70388;SDS011;58659;49.050;8.530;2022-12-18T06:56:59;24.03;;;7.67;;
70388;SDS011;58659;49.050;8.530;2022-12-18T06:59:24;25.90;;;8.93;;
70388;SDS011;58659;49.050;8.530;2022-12-18T07:01:49;32.93;;;8.80;;
70388;SDS011;58659;49.050;8.530;2022-12-18T07:04:15;27.43;;;8.93;;
70388;SDS011;58659;49.050;8.530;2022-12-18T07:06:40;29.47;;;8.70;;
70388;SDS011;58659;49.050;8.530;2022-12-18T07:09:05;30.07;;;9.80;;
70388;SDS011;58659;49.050;8.530;2022-12-18T07:11:32;20.80;;;7.37;;
70388;SDS011;58659;49.050;8.530;2022-12-18T07:14:01;22.70;;;6.47;;
70388;SDS011;58659;49.050;8.530;2022-12-18T07:16:26;22.20;;;7.70;;
70388;SDS011;58659;49.050;8.530;2022-12-18T07:18:54;29.73;;;7.47;;
70388;SDS011;58659;49.050;8.530;2022-12-18T07:21:20;27.50;;;9.10;;
70388;SDS011;58659;49.050;8.530;2022-12-18T07:23:46;24.30;;;8.50;;
70388;SDS011;58659;49.050;8.530;2022-12-18T07:26:13;24.93;;;7.30;;
70388;SDS011;58659;49.050;8.530;2022-12-18T07:28:40;26.97;;;7.80;;
70388;SDS011;58659;49.050;8.530;2022-12-18T07:31:07;29.07;;;8.43;;
70388;SDS011;58659;49.050;8.530;2022-12-18T07:33:34;25.43;;;8.33;;
70388;SDS011;58659;49.050;8.530;2022-12-18T07:36:01;24.60;;;8.07;;
70388;SDS011;58659;49.050;8.530;2022-12-18T07:38:28;31.80;;;9.07;;
70388;SDS011;58659;49.050;8.530;2022-12-18T07:40:53;25.60;;;7.57;;
70388;SDS011;58659;49.050;8.530;2022-12-18T07:43:19;28.30;;;9.40;;
70388;SDS011;58659;49.050;8.530;2022-12-18T07:45:44;22.07;;;8.27;;
70388;SDS011;58659;49.050;8.530;2022-12-18T07:48:09;35.87;;;10.07;;
70388;SDS011;58659;49.050;8.530;2022-12-18T07:50:35;27.17;;;9.47;;
70388;SDS011;58659;49.050;8.530;2022-12-18T07:53:00;25.07;;;8.50;;
70388;SDS011;58659;49.050;8.530;2022-12-18T07:55:28;26.37;;;9.33;;
70388;SDS011;58659;49.050;8.530;2022-12-18T07:57:55;29.33;;;9.90;;
70388;SDS011;58659;49.050;8.530;2022-12-18T08:00:20;29.57;;;9.43;;
70388;SDS011;58659;49.050;8.530;2022-12-18T08:02:45;24.90;;;8.80;;
70388;SDS011;58659;49.050;8.530;2022-12-18T08:05:11;25.83;;;9.33;;
70388;SDS011;58659;49.050;8.530;2022-12-18T08:07:37;30.30;;;11.13;;
70388;SDS011;58659;49.050;8.530;2022-12-18T08:10:03;23.73;;;9.20;;
70388;SDS011;58659;49.050;8.530;2022-12-18T08:12:28;31.50;;;8.03;;
70388;SDS011;58659;49.050;8.530;2022-12-18T08:14:53;24.40;;;8.30;;
70388;SDS011;58659;49.050;8.530;2022-12-18T08:17:19;27.47;;;9.67;;
70388;SDS011;58659;49.050;8.530;2022-12-18T08:19:45;27.33;;;8.87;;
70388;SDS011;58659;49.050;8.530;2022-12-18T08:22:10;27.67;;;8.33;;
70388;SDS011;58659;49.050;8.530;2022-12-18T08:24:35;29.63;;;9.33;;
70388;SDS011;58659;49.050;8.530;2022-12-18T08:27:00;22.97;;;8.57;;
70388;SDS011;58659;49.050;8.530;2022-12-18T08:29:26;26.07;;;8.37;;
70388;SDS011;58659;49.050;8.530;2022-12-18T08:31:51;31.67;;;9.00;;
70388;SDS011;58659;49.050;8.530;2022-12-18T08:34:16;27.73;;;9.57;;
70388;SDS011;58659;49.050;8.530;2022-12-18T08:36:42;18.30;;;7.00;;
70388;SDS011;58659;49.050;8.530;2022-12-18T08:39:07;21.70;;;8.60;;
70388;SDS011;58659;49.050;8.530;2022-12-18T08:41:32;31.13;;;8.23;;
70388;SDS011;58659;49.050;8.530;2022-12-18T08:43:58;21.00;;;8.33;;
70388;SDS011;58659;49.050;8.530;2022-12-18T08:46:42;22.63;;;7.10;;
70388;SDS011;58659;49.050;8.530;2022-12-18T08:49:08;22.47;;;7.87;;
70388;SDS011;58659;49.050;8.530;2022-12-18T08:51:35;28.93;;;7.67;;
70388;SDS011;58659;49.050;8.530;2022-12-18T08:54:01;26.67;;;7.97;;
70388;SDS011;58659;49.050;8.530;2022-12-18T08:56:26;22.10;;;8.23;;
70388;SDS011;58659;49.050;8.530;2022-12-18T08:58:52;27.17;;;9.47;;
70388;SDS011;58659;49.050;8.530;2022-12-18T09:01:18;35.13;;;10.07;;
70388;SDS011;58659;49.050;8.530;2022-12-18T09:03:50;23.50;;;8.83;;
70388;SDS011;58659;49.050;8.530;2022-12-18T09:06:16;31.53;;;7.63;;
70388;SDS011;58659;49.050;8.530;2022-12-18T09:08:43;27.23;;;9.13;;
70388;SDS011;58659;49.050;8.530;2022-12-18T09:11:11;25.63;;;9.87;;
70388;SDS011;58659;49.050;8.530;2022-12-18T09:13:40;28.80;;;8.27;;
70388;SDS011;58659;49.050;8.530;2022-12-18T09:16:05;24.17;;;8.63;;
70388;SDS011;58659;49.050;8.530;2022-12-18T09:18:31;29.90;;;9.63;;
70388;SDS011;58659;49.050;8.530;2022-12-18T09:20:56;28.10;;;8.43;;
70388;SDS011;58659;49.050;8.530;2022-12-18T09:23:22;35.97;;;9.60;;
70388;SDS011;58659;49.050;8.530;2022-12-18T09:25:47;29.43;;;8.93;;
70388;SDS011;58659;49.050;8.530;2022-12-18T09:28:16;35.47;;;9.43;;
70388;SDS011;58659;49.050;8.530;2022-12-18T09:30:47;22.03;;;8.00;;
70388;SDS011;58659;49.050;8.530;2022-12-18T09:33:13;32.40;;;9.57;;
70388;SDS011;58659;49.050;8.530;2022-12-18T09:35:40;25.33;;;8.23;;
70388;SDS011;58659;49.050;8.530;2022-12-18T09:38:07;35.03;;;10.10;;
70388;SDS011;58659;49.050;8.530;2022-12-18T09:40:36;20.83;;;8.17;;
70388;SDS011;58659;49.050;8.530;2022-12-18T09:43:06;33.20;;;10.10;;
70388;SDS011;58659;49.050;8.530;2022-12-18T09:45:51;28.37;;;9.53;;
70388;SDS011;58659;49.050;8.530;2022-12-18T09:48:23;36.83;;;9.17;;
70388;SDS011;58659;49.050;8.530;2022-12-18T09:50:50;26.50;;;9.67;;
70388;SDS011;58659;49.050;8.530;2022-12-18T09:53:21;34.67;;;10.07;;
70388;SDS011;58659;49.050;8.530;2022-12-18T09:55:54;33.40;;;8.70;;
70388;SDS011;58659;49.050;8.530;2022-12-18T09:58:35;28.50;;;8.13;;
70388;SDS011;58659;49.050;8.530;2022-12-18T10:01:13;27.87;;;9.27;;
70388;SDS011;58659;49.050;8.530;2022-12-18T10:03:41;25.93;;;9.03;;
70388;SDS011;58659;49.050;8.530;2022-12-18T10:06:08;32.90;;;9.13;;
70388;SDS011;58659;49.050;8.530;2022-12-18T10:20:02;26.00;;;8.97;;
70388;SDS011;58659;49.050;8.530;2022-12-18T10:27:40;23.80;;;9.20;;
70388;SDS011;58659;49.050;8.530;2022-12-18T10:30:12;32.37;;;8.70;;
70388;SDS011;58659;49.050;8.530;2022-12-18T10:32:39;27.00;;;9.00;;
70388;SDS011;58659;49.050;8.530;2022-12-18T10:35:07;24.53;;;10.10;;
70388;SDS011;58659;49.050;8.530;2022-12-18T10:37:58;28.03;;;9.40;;
70388;SDS011;58659;49.050;8.530;2022-12-18T10:43:19;28.07;;;9.90;;
70388;SDS011;58659;49.050;8.530;2022-12-18T10:51:23;24.80;;;8.60;;
70388;SDS011;58659;49.050;8.530;2022-12-18T10:56:27;25.33;;;9.30;;
70388;SDS011;58659;49.050;8.530;2022-12-18T11:01:28;19.57;;;7.77;;
70388;SDS011;58659;49.050;8.530;2022-12-18T11:04:13;22.20;;;7.83;;
70388;SDS011;58659;49.050;8.530;2022-12-18T11:09:29;21.73;;;7.73;;
70388;SDS011;58659;49.050;8.530;2022-12-18T11:11:58;23.77;;;8.87;;
70388;SDS011;58659;49.050;8.530;2022-12-18T11:20:05;26.97;;;8.43;;
70388;SDS011;58659;49.050;8.530;2022-12-18T11:22:58;26.90;;;7.90;;
70388;SDS011;58659;49.050;8.530;2022-12-18T11:25:26;24.83;;;7.67;;
70388;SDS011;58659;49.050;8.530;2022-12-18T11:27:52;24.30;;;6.60;;
70388;SDS011;58659;49.050;8.530;2022-12-18T11:30:23;19.83;;;6.67;;
70388;SDS011;58659;49.050;8.530;2022-12-18T11:32:50;27.13;;;8.03;;
70388;SDS011;58659;49.050;8.530;2022-12-18T11:40:47;18.50;;;8.00;;
70388;SDS011;58659;49.050;8.530;2022-12-18T11:43:25;25.87;;;10.33;;
70388;SDS011;58659;49.050;8.530;2022-12-18T11:45:55;19.23;;;7.57;;
70388;SDS011;58659;49.050;8.530;2022-12-18T11:48:27;17.73;;;7.37;;
70388;SDS011;58659;49.050;8.530;2022-12-18T11:50:59;18.30;;;6.97;;
70388;SDS011;58659;49.050;8.530;2022-12-18T11:53:27;21.70;;;8.20;;
70388;SDS011;58659;49.050;8.530;2022-12-18T11:58:56;24.97;;;6.90;;
70388;SDS011;58659;49.050;8.530;2022-12-18T12:09:40;20.33;;;8.23;;
70388;SDS011;58659;49.050;8.530;2022-12-18T12:20:22;21.70;;;7.00;;
70388;SDS011;58659;49.050;8.530;2022-12-18T12:23:02;23.90;;;8.73;;
70388;SDS011;58659;49.050;8.530;2022-12-18T12:31:24;25.70;;;7.43;;
70388;SDS011;58659;49.050;8.530;2022-12-18T12:39:35;29.13;;;9.60;;
70388;SDS011;58659;49.050;8.530;2022-12-18T12:42:08;23.77;;;8.80;;
70388;SDS011;58659;49.050;8.530;2022-12-18T12:45:30;21.67;;;7.57;;
70388;SDS011;58659;49.050;8.530;2022-12-18T12:48:11;26.50;;;8.80;;
70388;SDS011;58659;49.050;8.530;2022-12-18T12:50:43;16.70;;;6.97;;
70388;SDS011;58659;49.050;8.530;2022-12-18T12:53:21;27.53;;;8.37;;
70388;SDS011;58659;49.050;8.530;2022-12-18T12:55:52;20.03;;;6.67;;
70388;SDS011;58659;49.050;8.530;2022-12-18T12:58:23;19.83;;;7.90;;
70388;SDS011;58659;49.050;8.530;2022-12-18T13:09:08;24.77;;;8.17;;
70388;SDS011;58659;49.050;8.530;2022-12-18T13:11:46;20.73;;;7.87;;
70388;SDS011;58659;49.050;8.530;2022-12-18T13:14:34;17.13;;;6.40;;
70388;SDS011;58659;49.050;8.530;2022-12-18T13:17:14;18.87;;;5.40;;
70388;SDS011;58659;49.050;8.530;2022-12-18T13:20:06;24.03;;;7.83;;
70388;SDS011;58659;49.050;8.530;2022-12-18T13:22:47;25.40;;;7.97;;
70388;SDS011;58659;49.050;8.530;2022-12-18T13:25:33;28.53;;;8.13;;
70388;SDS011;58659;49.050;8.530;2022-12-18T13:28:14;21.50;;;7.00;;
70388;SDS011;58659;49.050;8.530;2022-12-18T13:45:45;18.87;;;5.50;;
70388;SDS011;58659;49.050;8.530;2022-12-18T13:48:19;25.80;;;7.80;;
70388;SDS011;58659;49.050;8.530;2022-12-18T13:51:21;17.30;;;6.57;;
70388;SDS011;58659;49.050;8.530;2022-12-18T13:53:43;18.33;;;6.40;;
70388;SDS011;58659;49.050;8.530;2022-12-18T13:56:15;21.13;;;7.23;;
70388;SDS011;58659;49.050;8.530;2022-12-18T13:58:42;14.23;;;5.30;;
70388;SDS011;58659;49.050;8.530;2022-12-18T14:01:25;21.20;;;6.37;;
70388;SDS011;58659;49.050;8.530;2022-12-18T14:03:50;16.60;;;5.90;;
70388;SDS011;58659;49.050;8.530;2022-12-18T14:06:16;20.70;;;6.70;;
70388;SDS011;58659;49.050;8.530;2022-12-18T14:08:41;37.57;;;9.87;;
70388;SDS011;58659;49.050;8.530;2022-12-18T14:11:17;22.23;;;7.47;;
70388;SDS011;58659;49.050;8.530;2022-12-18T14:13:45;24.27;;;7.93;;
70388;SDS011;58659;49.050;8.530;2022-12-18T14:16:12;21.00;;;8.43;;
70388;SDS011;58659;49.050;8.530;2022-12-18T14:21:29;19.90;;;7.07;;
70388;SDS011;58659;49.050;8.530;2022-12-18T14:26:39;30.27;;;9.13;;
70388;SDS011;58659;49.050;8.530;2022-12-18T14:34:31;23.10;;;7.87;;
70388;SDS011;58659;49.050;8.530;2022-12-18T14:36:57;23.83;;;8.67;;
70388;SDS011;58659;49.050;8.530;2022-12-18T14:39:22;22.07;;;8.03;;
70388;SDS011;58659;49.050;8.530;2022-12-18T14:41:50;26.07;;;8.17;;
70388;SDS011;58659;49.050;8.530;2022-12-18T14:44:16;20.43;;;6.47;;
70388;SDS011;58659;49.050;8.530;2022-12-18T14:46:42;26.13;;;8.07;;
70388;SDS011;58659;49.050;8.530;2022-12-18T14:51:54;23.10;;;8.20;;
70388;SDS011;58659;49.050;8.530;2022-12-18T14:54:22;32.60;;;10.10;;
70388;SDS011;58659;49.050;8.530;2022-12-18T14:56:51;23.83;;;8.30;;
70388;SDS011;58659;49.050;8.530;2022-12-18T14:59:22;26.40;;;8.80;;
70388;SDS011;58659;49.050;8.530;2022-12-18T15:09:35;25.57;;;9.10;;
70388;SDS011;58659;49.050;8.530;2022-12-18T15:12:00;25.30;;;7.47;;
70388;SDS011;58659;49.050;8.530;2022-12-18T15:16:54;18.67;;;8.03;;
70388;SDS011;58659;49.050;8.530;2022-12-18T15:19:21;30.67;;;9.03;;
70388;SDS011;58659;49.050;8.530;2022-12-18T15:21:49;31.63;;;8.83;;
70388;SDS011;58659;49.050;8.530;2022-12-18T15:24:16;25.13;;;8.47;;
70388;SDS011;58659;49.050;8.530;2022-12-18T15:26:43;24.33;;;8.10;;
70388;SDS011;58659;49.050;8.530;2022-12-18T15:29:16;24.07;;;8.97;;
70388;SDS011;58659;49.050;8.530;2022-12-18T15:31:45;24.80;;;8.37;;
70388;SDS011;58659;49.050;8.530;2022-12-18T15:34:26;23.63;;;8.83;;
70388;SDS011;58659;49.050;8.530;2022-12-18T15:36:52;26.53;;;9.27;;
70388;SDS011;58659;49.050;8.530;2022-12-18T15:39:18;27.27;;;9.77;;
70388;SDS011;58659;49.050;8.530;2022-12-18T15:41:43;26.60;;;10.07;;
70388;SDS011;58659;49.050;8.530;2022-12-18T15:44:29;27.37;;;9.83;;
70388;SDS011;58659;49.050;8.530;2022-12-18T15:46:54;32.17;;;9.10;;
70388;SDS011;58659;49.050;8.530;2022-12-18T15:49:19;43.27;;;9.90;;
70388;SDS011;58659;49.050;8.530;2022-12-18T15:51:45;29.80;;;10.40;;
70388;SDS011;58659;49.050;8.530;2022-12-18T15:54:16;27.83;;;10.77;;
70388;SDS011;58659;49.050;8.530;2022-12-18T15:56:42;29.33;;;9.33;;
70388;SDS011;58659;49.050;8.530;2022-12-18T15:59:26;24.43;;;10.57;;
70388;SDS011;58659;49.050;8.530;2022-12-18T16:01:51;33.70;;;11.20;;
70388;SDS011;58659;49.050;8.530;2022-12-18T16:04:20;31.73;;;9.67;;
70388;SDS011;58659;49.050;8.530;2022-12-18T16:06:48;29.50;;;9.10;;
70388;SDS011;58659;49.050;8.530;2022-12-18T16:09:13;32.13;;;10.63;;
70388;SDS011;58659;49.050;8.530;2022-12-18T16:11:39;35.93;;;10.03;;
70388;SDS011;58659;49.050;8.530;2022-12-18T16:16:36;29.73;;;11.77;;
70388;SDS011;58659;49.050;8.530;2022-12-18T16:19:01;29.13;;;8.87;;
70388;SDS011;58659;49.050;8.530;2022-12-18T16:21:26;20.70;;;8.63;;
70388;SDS011;58659;49.050;8.530;2022-12-18T16:23:52;29.67;;;9.57;;
70388;SDS011;58659;49.050;8.530;2022-12-18T16:26:17;30.10;;;10.90;;
70388;SDS011;58659;49.050;8.530;2022-12-18T16:28:42;18.80;;;7.40;;
70388;SDS011;58659;49.050;8.530;2022-12-18T16:31:08;27.07;;;9.33;;
70388;SDS011;58659;49.050;8.530;2022-12-18T16:33:33;34.33;;;9.90;;
70388;SDS011;58659;49.050;8.530;2022-12-18T16:35:58;28.83;;;9.50;;
70388;SDS011;58659;49.050;8.530;2022-12-18T16:38:24;22.17;;;7.73;;
70388;SDS011;58659;49.050;8.530;2022-12-18T16:40:49;26.30;;;8.43;;
70388;SDS011;58659;49.050;8.530;2022-12-18T16:43:33;22.40;;;7.97;;
70388;SDS011;58659;49.050;8.530;2022-12-18T16:45:58;28.47;;;9.20;;
70388;SDS011;58659;49.050;8.530;2022-12-18T16:48:24;28.07;;;8.37;;
70388;SDS011;58659;49.050;8.530;2022-12-18T16:50:49;20.00;;;6.97;;
70388;SDS011;58659;49.050;8.530;2022-12-18T16:53:14;20.70;;;8.30;;
70388;SDS011;58659;49.050;8.530;2022-12-18T16:55:40;31.77;;;8.50;;
70388;SDS011;58659;49.050;8.530;2022-12-18T16:58:05;24.30;;;8.77;;
70388;SDS011;58659;49.050;8.530;2022-12-18T17:00:30;22.47;;;8.07;;
70388;SDS011;58659;49.050;8.530;2022-12-18T17:02:55;23.27;;;8.63;;
70388;SDS011;58659;49.050;8.530;2022-12-18T17:05:21;24.23;;;8.10;;
70388;SDS011;58659;49.050;8.530;2022-12-18T17:07:46;21.27;;;8.20;;
70388;SDS011;58659;49.050;8.530;2022-12-18T17:10:11;20.50;;;7.80;;
70388;SDS011;58659;49.050;8.530;2022-12-18T17:12:37;23.97;;;7.30;;
70388;SDS011;58659;49.050;8.530;2022-12-18T17:15:02;21.57;;;7.93;;
70388;SDS011;58659;49.050;8.530;2022-12-18T17:17:27;19.93;;;6.93;;
70388;SDS011;58659;49.050;8.530;2022-12-18T17:19:53;25.70;;;9.50;;
70388;SDS011;58659;49.050;8.530;2022-12-18T17:22:19;18.53;;;7.93;;